createdAt,value
2017-05-30T00:02:44.656Z,20.30
2017-05-30T00:05:12.914Z,20.30
2017-05-30T00:07:41.149Z,20.50
2017-05-30T00:10:09.392Z,20.60
2017-05-30T00:12:37.672Z,20.60
2017-05-30T00:15:05.908Z,20.60
2017-05-30T00:17:34.154Z,20.60
2017-05-30T00:20:02.382Z,20.70
2017-05-30T00:22:30.639Z,20.70
2017-05-30T00:24:58.889Z,20.70
2017-05-30T00:27:43.832Z,20.70
2017-05-30T00:30:12.084Z,20.70
2017-05-30T00:32:40.334Z,20.60
2017-05-30T00:35:09.155Z,20.60
2017-05-30T00:37:37.445Z,20.50
2017-05-30T00:40:05.715Z,20.50
2017-05-30T00:45:28.043Z,20.20
2017-05-30T00:48:16.966Z,20.00
2017-05-30T00:50:45.917Z,19.90
2017-05-30T00:53:14.164Z,20.10
2017-05-30T00:55:42.419Z,20.10
2017-05-30T00:58:10.661Z,20.10
2017-05-30T01:00:38.905Z,20.00
2017-05-30T01:03:07.142Z,19.90
2017-05-30T01:05:35.387Z,19.80
2017-05-30T01:08:03.819Z,19.80
2017-05-30T01:10:32.133Z,19.80
2017-05-30T01:13:00.407Z,19.80
2017-05-30T01:15:28.673Z,19.80
2017-05-30T01:17:56.924Z,19.70
2017-05-30T01:20:25.156Z,19.50
2017-05-30T01:22:53.611Z,19.40
2017-05-30T01:25:21.868Z,19.50
2017-05-30T01:27:50.123Z,19.40
2017-05-30T01:33:11.828Z,19.50
2017-05-30T01:35:40.073Z,19.70
2017-05-30T01:38:08.346Z,19.60
2017-05-30T01:40:36.592Z,19.40
2017-05-30T01:43:04.847Z,19.40
2017-05-30T01:45:33.092Z,19.60
2017-05-30T01:48:01.392Z,19.70
2017-05-30T01:50:29.629Z,19.80
2017-05-30T01:52:57.896Z,19.70
2017-05-30T01:55:26.148Z,19.70
2017-05-30T01:57:54.397Z,19.30
2017-05-30T02:00:22.696Z,19.30
2017-05-30T02:02:50.939Z,19.40
2017-05-30T02:05:19.555Z,19.30
2017-05-30T02:07:47.798Z,19.20
2017-05-30T02:10:16.040Z,19.30
2017-05-30T02:12:44.272Z,19.40
2017-05-30T02:15:12.520Z,19.50
2017-05-30T02:17:40.774Z,19.50
2017-05-30T02:20:09.043Z,19.50
2017-05-30T02:22:37.288Z,19.50
2017-05-30T02:25:05.541Z,19.40
2017-05-30T02:27:33.776Z,19.20
2017-05-30T02:30:02.024Z,18.90
2017-05-30T02:32:30.271Z,19.00
2017-05-30T02:34:58.556Z,19.00
2017-05-30T02:37:26.789Z,18.90
2017-05-30T02:39:55.092Z,18.90
2017-05-30T02:42:23.405Z,18.90
2017-05-30T02:44:51.671Z,18.80
2017-05-30T02:47:19.893Z,18.80
2017-05-30T02:49:48.140Z,18.70
2017-05-30T02:52:16.381Z,18.70
2017-05-30T02:54:44.672Z,18.70
2017-05-30T02:57:12.971Z,18.80
2017-05-30T02:59:41.211Z,18.90
2017-05-30T03:02:09.475Z,18.80
2017-05-30T03:04:37.707Z,18.70
2017-05-30T03:07:06.028Z,18.80
2017-05-30T03:09:34.289Z,18.90
2017-05-30T03:12:02.541Z,19.00
2017-05-30T03:14:30.785Z,19.00
2017-05-30T03:19:53.100Z,18.80
2017-05-30T03:22:21.338Z,18.90
2017-05-30T03:24:49.593Z,18.90
2017-05-30T03:27:17.840Z,18.80
2017-05-30T03:32:40.544Z,18.70
2017-05-30T03:35:12.722Z,18.90
2017-05-30T03:37:41.062Z,18.90
2017-05-30T03:40:09.345Z,18.90
2017-05-30T03:42:37.582Z,19.00
2017-05-30T03:45:05.836Z,19.10
2017-05-30T03:50:28.383Z,19.10
2017-05-30T03:52:56.647Z,19.20
2017-05-30T03:55:24.891Z,19.20
2017-05-30T04:00:46.891Z,19.30
2017-05-30T04:03:15.128Z,19.20
2017-05-30T04:05:43.369Z,19.10
2017-05-30T04:08:11.626Z,19.30
2017-05-30T04:10:39.857Z,19.30
2017-05-30T04:13:08.111Z,19.30
2017-05-30T04:15:36.944Z,19.30
2017-05-30T04:18:05.190Z,19.30
2017-05-30T04:20:33.440Z,19.30
2017-05-30T04:23:01.726Z,19.40
2017-05-30T04:25:29.970Z,19.30
2017-05-30T04:28:21.332Z,19.10
2017-05-30T04:30:49.580Z,19.10
2017-05-30T04:33:17.825Z,19.20
2017-05-30T04:35:46.077Z,19.20
2017-05-30T04:38:14.325Z,19.10
2017-05-30T04:40:42.555Z,19.10
2017-05-30T04:43:10.795Z,19.20
2017-05-30T04:45:39.033Z,19.20
2017-05-30T04:48:07.272Z,19.10
2017-05-30T04:50:35.592Z,19.20
2017-05-30T04:53:03.856Z,19.00
2017-05-30T04:55:38.322Z,19.20
2017-05-30T04:58:06.556Z,19.20
2017-05-30T05:00:34.803Z,19.30
2017-05-30T05:03:03.033Z,19.40
2017-05-30T05:05:31.288Z,19.30
2017-05-30T05:07:59.556Z,19.20
2017-05-30T05:10:27.803Z,19.40
2017-05-30T05:12:56.114Z,19.40
2017-05-30T05:15:24.371Z,19.40
2017-05-30T05:17:52.613Z,19.40
2017-05-30T05:20:20.860Z,19.50
2017-05-30T05:22:49.109Z,19.50
2017-05-30T05:25:17.451Z,19.50
2017-05-30T05:27:45.710Z,19.40
2017-05-30T05:30:13.995Z,19.40
2017-05-30T05:32:42.256Z,19.50
2017-05-30T05:35:10.854Z,19.50
2017-05-30T05:37:39.166Z,19.50
2017-05-30T05:40:07.405Z,19.60
2017-05-30T05:42:35.673Z,19.60
2017-05-30T05:45:03.949Z,19.60
2017-05-30T05:47:32.192Z,19.60
2017-05-30T05:50:00.469Z,19.60
2017-05-30T05:52:28.715Z,19.60
2017-05-30T05:54:56.949Z,19.70
2017-05-30T05:57:25.239Z,19.70
2017-05-30T05:59:53.477Z,19.80
2017-05-30T06:02:31.569Z,19.90
2017-05-30T06:04:59.804Z,20.00
2017-05-30T06:07:28.070Z,20.00
2017-05-30T06:09:56.320Z,20.00
2017-05-30T06:12:24.569Z,20.00
2017-05-30T06:14:52.813Z,20.00
2017-05-30T06:17:21.075Z,20.10
2017-05-30T06:19:49.351Z,20.10
2017-05-30T06:22:17.680Z,20.20
2017-05-30T06:24:45.927Z,20.10
2017-05-30T06:27:14.167Z,20.20
2017-05-30T06:29:42.415Z,20.10
2017-05-30T06:32:10.650Z,20.20
2017-05-30T06:34:38.885Z,20.20
2017-05-30T06:37:07.117Z,20.20
2017-05-30T06:39:35.392Z,20.20
2017-05-30T06:42:03.629Z,20.40
2017-05-30T06:44:31.867Z,20.40
2017-05-30T06:47:00.120Z,20.30
2017-05-30T06:49:28.352Z,20.40
2017-05-30T06:51:56.616Z,20.50
2017-05-30T06:54:24.867Z,20.60
2017-05-30T06:56:53.112Z,20.60
2017-05-30T06:59:21.343Z,20.70
2017-05-30T07:01:49.600Z,20.70
2017-05-30T07:04:17.873Z,20.70
2017-05-30T07:06:46.140Z,20.70
2017-05-30T07:09:14.389Z,20.70
2017-05-30T07:11:42.647Z,20.70
2017-05-30T07:14:10.879Z,20.80
2017-05-30T07:16:39.138Z,20.90
2017-05-30T07:19:07.380Z,21.00
2017-05-30T07:21:35.658Z,21.10
2017-05-30T07:24:03.908Z,21.20
2017-05-30T07:26:32.149Z,21.30
2017-05-30T07:29:00.379Z,21.40
2017-05-30T07:31:28.630Z,21.50
2017-05-30T07:33:56.883Z,21.60
2017-05-30T07:36:25.128Z,21.70
2017-05-30T07:38:53.396Z,21.60
2017-05-30T07:44:15.758Z,21.80
2017-05-30T07:46:43.997Z,22.10
2017-05-30T07:49:12.253Z,22.20
2017-05-30T07:51:40.501Z,22.40
2017-05-30T07:54:08.755Z,22.70
2017-05-30T07:56:36.994Z,22.90
2017-05-30T07:59:05.232Z,23.00
2017-05-30T08:01:33.476Z,23.20
2017-05-30T08:06:56.149Z,23.50
2017-05-30T08:09:24.438Z,23.20
2017-05-30T08:11:52.719Z,23.30
2017-05-30T08:14:20.968Z,23.30
2017-05-30T08:16:49.212Z,23.30
2017-05-30T08:19:17.444Z,23.30
2017-05-30T08:21:45.686Z,23.20
2017-05-30T08:24:13.920Z,23.20
2017-05-30T08:26:42.168Z,23.30
2017-05-30T08:29:10.419Z,23.40
2017-05-30T08:31:38.679Z,23.30
2017-05-30T08:34:06.919Z,23.30
2017-05-30T08:36:35.187Z,23.10
2017-05-30T08:39:03.413Z,23.30
2017-05-30T08:41:31.801Z,23.30
2017-05-30T08:44:00.031Z,23.40
2017-05-30T08:46:28.280Z,23.50
2017-05-30T08:48:56.515Z,23.70
2017-05-30T08:51:24.829Z,24.00
2017-05-30T08:53:53.108Z,24.00
2017-05-30T08:56:21.340Z,24.20
2017-05-30T08:58:49.593Z,24.30
2017-05-30T09:01:17.853Z,24.30
2017-05-30T09:03:46.113Z,24.30
2017-05-30T09:06:14.355Z,24.40
2017-05-30T09:08:42.603Z,24.40
2017-05-30T09:11:10.840Z,24.40
2017-05-30T09:13:39.085Z,24.70
2017-05-30T09:16:07.410Z,24.80
2017-05-30T09:18:35.658Z,24.80
2017-05-30T09:21:03.902Z,24.90
2017-05-30T09:23:32.163Z,24.80
2017-05-30T09:26:00.459Z,24.90
2017-05-30T09:28:28.667Z,24.90
2017-05-30T09:30:56.926Z,24.90
2017-05-30T09:33:25.196Z,25.00
2017-05-30T09:35:53.427Z,25.20
2017-05-30T09:38:21.659Z,25.40
2017-05-30T09:40:50.011Z,25.50
2017-05-30T09:43:18.273Z,25.50
2017-05-30T09:45:46.512Z,25.60
2017-05-30T09:48:14.759Z,25.60
2017-05-30T09:50:43.026Z,25.90
2017-05-30T09:53:11.280Z,25.60
2017-05-30T09:55:39.552Z,25.50
2017-05-30T09:58:07.812Z,25.60
2017-05-30T10:00:36.048Z,25.70
2017-05-30T10:03:04.286Z,25.80
2017-05-30T10:05:32.537Z,25.50
2017-05-30T10:08:00.825Z,25.40
2017-05-30T10:10:29.106Z,25.60
2017-05-30T10:12:57.369Z,25.60
2017-05-30T10:15:25.624Z,25.70
2017-05-30T10:17:53.906Z,25.70
2017-05-30T10:20:22.140Z,25.70
2017-05-30T10:22:50.420Z,25.90
2017-05-30T10:25:18.653Z,26.00
2017-05-30T10:27:46.884Z,26.00
2017-05-30T10:30:15.139Z,26.10
2017-05-30T10:32:43.394Z,26.00
2017-05-30T10:38:05.496Z,26.30
2017-05-30T10:40:33.788Z,26.50
2017-05-30T10:43:02.043Z,26.50
2017-05-30T10:45:30.285Z,26.50
2017-05-30T10:47:58.574Z,26.60
2017-05-30T10:50:26.836Z,26.80
2017-05-30T10:52:55.088Z,26.90
2017-05-30T10:55:23.337Z,26.80
2017-05-30T10:57:51.592Z,26.80
2017-05-30T11:00:19.832Z,26.70
2017-05-30T11:02:48.080Z,26.90
2017-05-30T11:05:33.480Z,27.00
2017-05-30T11:08:14.152Z,27.10
2017-05-30T11:10:49.795Z,27.10
2017-05-30T11:13:18.116Z,27.00
2017-05-30T11:15:46.327Z,27.10
2017-05-30T11:18:14.555Z,27.20
2017-05-30T11:20:42.808Z,27.20
2017-05-30T11:23:11.040Z,27.40
2017-05-30T11:25:39.290Z,27.40
2017-05-30T11:28:07.526Z,27.40
2017-05-30T11:30:35.781Z,27.60
2017-05-30T11:33:04.031Z,27.60
2017-05-30T11:35:32.283Z,27.70
2017-05-30T11:38:00.644Z,27.70
2017-05-30T11:40:28.899Z,27.80
2017-05-30T11:42:57.152Z,27.90
2017-05-30T11:45:25.395Z,28.00
2017-05-30T11:47:53.630Z,27.90
2017-05-30T11:50:22.892Z,27.90
2017-05-30T11:52:51.152Z,28.00
2017-05-30T11:55:19.396Z,28.00
2017-05-30T11:57:47.647Z,28.00
2017-05-30T12:00:15.900Z,28.10
2017-05-30T12:02:44.146Z,27.80
2017-05-30T12:05:12.759Z,27.80
2017-05-30T12:07:41.160Z,27.90
2017-05-30T12:10:09.386Z,27.90
2017-05-30T12:12:37.644Z,28.00
2017-05-30T12:15:05.900Z,27.90
2017-05-30T12:17:34.135Z,28.40
2017-05-30T12:20:02.391Z,28.30
2017-05-30T12:22:30.642Z,28.50
2017-05-30T12:24:58.871Z,28.50
2017-05-30T12:27:40.249Z,28.30
2017-05-30T12:30:08.480Z,28.10
2017-05-30T12:32:37.972Z,28.00
2017-05-30T12:35:06.477Z,27.90
2017-05-30T12:37:34.777Z,28.00
2017-05-30T12:40:03.011Z,28.10
2017-05-30T12:42:31.257Z,28.30
2017-05-30T12:45:21.364Z,28.30
2017-05-30T12:47:49.607Z,28.50
2017-05-30T12:50:17.852Z,28.60
2017-05-30T12:52:46.091Z,28.60
2017-05-30T12:55:14.342Z,28.60
2017-05-30T12:57:42.629Z,28.70
2017-05-30T13:00:10.880Z,29.00
2017-05-30T13:02:39.110Z,29.00
2017-05-30T13:05:08.055Z,29.20
2017-05-30T13:07:36.309Z,29.40
2017-05-30T13:10:04.563Z,29.20
2017-05-30T13:12:32.796Z,29.20
2017-05-30T13:15:01.045Z,29.30
2017-05-30T13:17:29.310Z,29.50
2017-05-30T13:19:57.588Z,29.50
2017-05-30T13:25:32.200Z,29.60
2017-05-30T13:28:00.436Z,29.60
2017-05-30T13:30:28.685Z,29.50
2017-05-30T13:32:56.940Z,29.20
2017-05-30T13:35:25.272Z,29.00
2017-05-30T13:37:53.544Z,28.90
2017-05-30T13:40:21.782Z,28.70
2017-05-30T13:42:50.038Z,28.40
2017-05-30T13:45:18.298Z,28.30
2017-05-30T13:47:46.553Z,28.00
2017-05-30T13:50:14.948Z,27.80
2017-05-30T13:52:43.193Z,27.80
2017-05-30T13:55:11.441Z,27.90
2017-05-30T13:57:39.675Z,27.80
2017-05-30T14:00:07.912Z,27.80
2017-05-30T14:02:36.160Z,27.70
2017-05-30T14:10:53.344Z,27.40
2017-05-30T14:13:21.609Z,27.40
2017-05-30T14:15:49.856Z,27.50
2017-05-30T14:18:35.092Z,27.60
2017-05-30T14:21:03.339Z,27.70
2017-05-30T14:23:31.596Z,27.90
2017-05-30T14:25:59.832Z,28.00
2017-05-30T14:34:16.103Z,27.90
2017-05-30T14:36:44.355Z,28.00
2017-05-30T14:39:12.613Z,28.10
2017-05-30T14:41:40.848Z,28.20
2017-05-30T14:44:09.233Z,28.10
2017-05-30T14:46:37.476Z,27.90
2017-05-30T14:49:05.723Z,27.60
2017-05-30T14:51:33.967Z,27.40
2017-05-30T14:54:02.208Z,27.20
2017-05-30T14:56:30.468Z,27.00
2017-05-30T14:58:58.697Z,26.90
2017-05-30T15:01:26.942Z,26.70
2017-05-30T15:03:55.172Z,26.50
2017-05-30T15:06:23.427Z,26.40
2017-05-30T15:08:54.692Z,26.20
2017-05-30T15:11:23.047Z,26.20
2017-05-30T15:13:51.272Z,25.90
2017-05-30T15:16:19.546Z,26.00
2017-05-30T15:18:53.978Z,26.00
2017-05-30T15:21:45.793Z,26.20
2017-05-30T15:24:14.049Z,26.20
2017-05-30T15:26:42.303Z,26.30
2017-05-30T15:29:10.556Z,26.10
2017-05-30T15:31:38.805Z,26.20
2017-05-30T15:37:01.496Z,26.70
2017-05-30T15:39:29.721Z,26.80
2017-05-30T15:41:58.012Z,27.00
2017-05-30T15:44:26.255Z,27.30
2017-05-30T15:49:48.704Z,27.70
2017-05-30T15:52:16.962Z,27.70
2017-05-30T15:54:45.188Z,27.60
2017-05-30T15:57:13.432Z,27.80
2017-05-30T15:59:41.682Z,27.80
2017-05-30T16:02:09.944Z,27.80
2017-05-30T16:04:38.220Z,27.60
2017-05-30T16:09:59.884Z,28.00
2017-05-30T16:12:28.141Z,28.10
2017-05-30T16:14:56.391Z,28.30
2017-05-30T16:17:24.637Z,28.50
2017-05-30T16:19:52.897Z,28.80
2017-05-30T16:22:21.163Z,29.00
2017-05-30T16:24:49.559Z,29.10
2017-05-30T16:27:17.798Z,28.60
2017-05-30T16:29:46.053Z,27.80
2017-05-30T16:32:14.284Z,27.10
2017-05-30T16:37:36.804Z,27.00
2017-05-30T16:40:05.052Z,26.70
2017-05-30T16:42:33.301Z,26.30
2017-05-30T16:45:01.532Z,25.80
2017-05-30T16:47:29.777Z,25.60
2017-05-30T16:52:51.574Z,25.00
2017-05-30T16:58:13.708Z,24.60
2017-05-30T17:00:41.965Z,24.40
2017-05-30T17:03:10.201Z,24.20
2017-05-30T17:05:38.440Z,24.10
2017-05-30T17:08:06.689Z,24.00
2017-05-30T17:10:34.968Z,23.80
2017-05-30T17:13:03.211Z,23.80
2017-05-30T17:15:31.448Z,23.80
2017-05-30T17:17:59.690Z,23.70
2017-05-30T17:20:27.927Z,23.80
2017-05-30T17:22:55.419Z,23.80
2017-05-30T17:25:23.677Z,23.70
2017-05-30T17:27:51.917Z,23.70
2017-05-30T17:30:20.175Z,23.60
2017-05-30T17:32:48.429Z,23.60
2017-05-30T17:35:16.689Z,23.60
2017-05-30T17:37:44.995Z,23.60
2017-05-30T17:40:13.226Z,23.60
2017-05-30T17:42:41.471Z,23.70
2017-05-30T17:45:09.708Z,23.60
2017-05-30T17:47:37.955Z,23.60
2017-05-30T17:50:06.191Z,23.60
2017-05-30T17:52:34.424Z,23.40
2017-05-30T17:55:02.666Z,23.40
2017-05-30T17:57:30.922Z,23.40
2017-05-30T17:59:59.252Z,23.30
2017-05-30T18:02:27.480Z,23.00
2017-05-30T18:04:55.740Z,23.10
2017-05-30T18:13:11.560Z,23.20
2017-05-30T18:15:47.270Z,23.10
2017-05-30T18:18:15.532Z,23.00
2017-05-30T18:20:43.804Z,22.90
2017-05-30T18:23:12.045Z,22.90
2017-05-30T18:25:46.899Z,22.90
2017-05-30T18:28:15.144Z,22.90
2017-05-30T18:30:57.780Z,22.90
2017-05-30T18:33:26.053Z,22.90
2017-05-30T18:41:41.961Z,22.70
2017-05-30T18:44:10.210Z,22.80
2017-05-30T18:46:38.501Z,22.70
2017-05-30T18:52:00.611Z,22.40
2017-05-30T18:54:28.857Z,22.30
2017-05-30T18:56:57.124Z,22.20
2017-05-30T18:59:25.370Z,22.20
2017-05-30T19:01:53.644Z,22.10
2017-05-30T19:04:21.924Z,22.20
2017-05-30T19:06:50.168Z,22.20
2017-05-30T19:09:18.405Z,22.10
2017-05-30T19:14:40.476Z,21.70
2017-05-30T19:17:08.722Z,21.50
2017-05-30T19:19:36.959Z,21.70
2017-05-30T19:22:05.205Z,21.60
2017-05-30T19:24:33.459Z,21.60
2017-05-30T19:27:01.704Z,21.60
2017-05-30T19:29:29.947Z,21.60
2017-05-30T19:31:58.190Z,21.60
2017-05-30T19:34:26.435Z,21.50
2017-05-30T19:37:00.505Z,21.40
2017-05-30T19:39:28.839Z,21.40
2017-05-30T19:41:57.103Z,21.30
2017-05-30T19:44:25.388Z,21.30
2017-05-30T19:46:53.656Z,21.20
2017-05-30T19:49:21.897Z,21.20
2017-05-30T19:51:50.140Z,21.20
2017-05-30T19:54:18.387Z,21.20
2017-05-30T19:56:46.681Z,21.20
2017-05-30T19:59:14.924Z,21.20
2017-05-30T20:01:43.177Z,21.20
2017-05-30T20:04:11.452Z,21.10
2017-05-30T20:06:39.714Z,21.00
2017-05-30T20:09:08.137Z,21.00
2017-05-30T20:11:36.373Z,21.10
2017-05-30T20:14:04.656Z,21.10
2017-05-30T20:16:32.897Z,21.20
2017-05-30T20:19:01.151Z,21.20
2017-05-30T20:21:29.399Z,21.20
2017-05-30T20:23:57.667Z,21.20
2017-05-30T20:26:25.930Z,21.20
2017-05-30T20:28:54.212Z,21.20
2017-05-30T20:31:22.466Z,21.20
2017-05-30T20:33:50.760Z,21.10
2017-05-30T20:36:19.007Z,21.10
2017-05-30T20:38:47.260Z,21.10
2017-05-30T20:41:15.495Z,21.00
2017-05-30T20:43:43.752Z,21.00
2017-05-30T20:46:12.004Z,21.00
2017-05-30T20:48:40.255Z,21.10
2017-05-30T20:51:08.496Z,20.90
2017-05-30T20:53:36.752Z,20.80
2017-05-30T20:56:04.992Z,20.70
2017-05-30T20:58:33.235Z,20.70
2017-05-30T21:01:01.530Z,20.60
2017-05-30T21:03:29.773Z,20.70
2017-05-30T21:05:58.031Z,20.70
2017-05-30T21:08:26.295Z,20.60
2017-05-30T21:10:54.595Z,20.60
2017-05-30T21:13:22.836Z,20.60
2017-05-30T21:15:51.084Z,20.50
2017-05-30T21:18:19.345Z,20.50
2017-05-30T21:20:47.699Z,20.60
2017-05-30T21:23:15.954Z,20.60
2017-05-30T21:25:44.219Z,20.60
2017-05-30T21:28:12.456Z,20.60
2017-05-30T21:30:40.691Z,20.40
2017-05-30T21:33:08.951Z,20.40
2017-05-30T21:35:37.200Z,20.40
2017-05-30T21:38:05.428Z,20.50
2017-05-30T21:40:33.680Z,20.50
2017-05-30T21:43:01.944Z,20.50
2017-05-30T21:45:30.265Z,20.50
2017-05-30T21:47:58.521Z,20.40
2017-05-30T21:50:26.764Z,20.40
2017-05-30T21:52:54.994Z,20.40
2017-05-30T21:55:23.268Z,20.30
2017-05-30T21:57:51.523Z,20.30
2017-05-30T22:00:19.919Z,20.30
2017-05-30T22:02:48.152Z,20.40
2017-05-30T22:05:24.977Z,20.30
2017-05-30T22:07:53.249Z,20.20
2017-05-30T22:10:21.505Z,20.30
2017-05-30T22:12:49.771Z,20.10
2017-05-30T22:15:18.010Z,20.10
2017-05-30T22:17:46.260Z,20.10
2017-05-30T22:20:14.506Z,20.20
2017-05-30T22:22:42.751Z,20.20
2017-05-30T22:25:10.990Z,20.10
2017-05-30T22:27:39.239Z,20.00
2017-05-30T22:30:07.527Z,20.00
2017-05-30T22:32:35.009Z,20.00
2017-05-30T22:35:03.258Z,19.90
2017-05-30T22:37:31.500Z,19.80
2017-05-30T22:39:59.738Z,19.80
2017-05-30T22:42:28.130Z,19.70
2017-05-30T22:44:56.376Z,19.80
2017-05-30T22:47:24.673Z,19.80
2017-05-30T22:49:52.915Z,19.80
2017-05-30T22:52:21.148Z,19.80
2017-05-30T22:54:49.478Z,19.70
2017-05-30T22:57:17.740Z,19.70
2017-05-30T22:59:53.863Z,19.50
2017-05-30T23:02:22.118Z,19.20
2017-05-30T23:04:50.376Z,19.20
2017-05-30T23:07:18.627Z,19.00
2017-05-30T23:09:46.891Z,18.90
2017-05-30T23:12:15.136Z,18.90
2017-05-30T23:14:43.388Z,19.10
2017-05-30T23:17:11.625Z,19.30
2017-05-30T23:19:39.876Z,19.30
2017-05-30T23:22:08.119Z,19.30
2017-05-30T23:24:36.368Z,19.30
2017-05-30T23:27:18.255Z,19.30
2017-05-30T23:29:46.528Z,19.30
2017-05-30T23:32:14.771Z,19.20
2017-05-30T23:34:43.020Z,19.10
2017-05-30T23:37:11.272Z,19.10
2017-05-30T23:39:39.517Z,19.20
2017-05-30T23:42:08.161Z,19.20
2017-05-30T23:44:36.407Z,19.20
2017-05-30T23:47:04.667Z,19.30
2017-05-30T23:52:26.586Z,19.20
2017-05-30T23:54:54.820Z,19.20
2017-05-30T23:57:23.079Z,19.20
2017-05-30T23:59:51.310Z,19.20
